• Join FlightAware (Why Join?)
  • Login
  • US Flag 
09:07AM EDT


 

Airport Tracker/Info


-or-


 

Live Flight TrackerFlight Track Log ✈ SWA419 ✈ 03-May-2013 ✈ KPWM - KBWI

Flight Track Log - Related Links

Times and Time Zones

All times are in EDT time to prevent confusion due to time zone crossing. See the SWA419 flight status page for this flight to view local times or setup timezone preferences in your user account.

Time Position Orientation Groundspeed Altitude Reporting Facility
EDT Latitude Longitude Course Direction KTS MPH feet Rate Location/Type
12:24PM 43.6428 -70.2653 184° South 163 188 1,900  Level Boston Center
12:25PM 43.5969 -70.2697 184° South 155 178 4,500 2,760 Climbing Boston Center
12:26PM 43.5356 -70.3378 219° Southwest 185 213 7,500 2,760 Climbing Boston Center
12:27PM 43.4742 -70.4000 216° Southwest 288 331 10,100 3,240 Climbing Boston Center
12:28PM 43.3944 -70.4828 217° Southwest 325 374 14,000 3,540 Climbing Boston Center
12:29PM 43.3144 -70.5653 217° Southwest 346 398 17,200 2,760 Climbing Boston Center
12:30PM 43.2406 -70.6389 216° Southwest 368 423 19,600 2,700 Climbing Boston Center
12:31PM 43.1503 -70.7297 216° Southwest 381 438 22,600 2,580 Climbing Boston Center
12:32PM 43.0492 -70.8036 208° Southwest 401 461 24,800 2,040 Climbing Boston Center
12:33PM 42.9378 -70.8803 207° Southwest 428 493 26,700 1,920 Climbing Boston Center
12:34PM 42.7683 -70.9892 205° Southwest 470 541 29,500 2,400 Climbing Boston Center
12:35PM 42.6442 -71.0514 200° South 480 552 32,500 1,500 Climbing Boston Center
12:37PM 42.5375 -71.0982 198° South  Level FlightAware Approximate
12:37PM 42.4186 -71.2028 198° South 470 541 34,000  Level Boston Center
12:38PM 42.3514 -71.3558 239° Southwest 450 518 34,000  Level Boston Center
12:39PM 42.2839 -71.5056 239° Southwest 463 533 34,000  Level Boston Center
12:41PM 42.2142 -71.6469 236° Southwest 469 540 34,000  Level Boston Center
12:42PM 42.1319 -71.8242 238° Southwest 469 540 34,000  Level Boston Center
12:43PM 42.0617 -71.9703 237° Southwest 464 534 34,000  Level Boston Center
12:44PM 41.9914 -72.1161 237° Southwest 464 534 34,000  Level Boston Center
12:45PM 41.9167 -72.2756 238° Southwest 469 540 34,000  Level Boston Center
12:46PM 41.8461 -72.4233 237° Southwest 469 540 34,000  Level Boston Center
12:47PM 41.7772 -72.5681 237° Southwest 469 540 34,000  Level Boston Center
12:48PM 41.7081 -72.7097 237° Southwest 469 540 34,000  Level Boston Center
12:49PM 41.6389 -72.8567 238° Southwest 464 534 34,000  Level Boston Center
12:50PM 41.5694 -72.9978 237° Southwest 464 534 34,000 -240 Level Boston Center
12:51PM 41.4656 -73.2103 237° Southwest 453 521 33,400 -600 Descending New York Center
12:52PM 41.3958 -73.3544 237° Southwest 458 527 32,500 -720 Descending New York Center
12:53PM 41.3239 -73.4981 236° Southwest 458 527 32,000 -300 Descending New York Center
12:54PM 41.2497 -73.6411 235° Southwest 465 535 32,000  Level New York Center
12:55PM 41.1714 -73.7728 232° Southwest 476 548 32,000  Level New York Center
12:56PM 41.0908 -73.9097 232° Southwest 476 548 32,000  Level New York Center
12:57PM 41.0122 -74.0433 232° Southwest 471 542 32,000  Level New York Center
12:58PM 40.9183 -74.1872 229° Southwest 471 542 32,000 -1,320 Level New York Center
12:59PM 40.8353 -74.3228 231° Southwest 477 549 29,400 -2,040 Descending New York Center
01:00PM 40.7583 -74.4558 233° Southwest 477 549 28,000 -960 Descending New York Center
01:01PM 40.6975 -74.5947 240° Southwest 448 516 27,500 -780 Descending New York Center
01:02PM 40.6717 -74.7467 257° West 438 504 26,500 -1,080 Descending New York Center
01:03PM 40.6131 -74.8828 240° Southwest 438 504 25,400 -1,620 Descending New York Center
01:04PM 40.5256 -74.9947 224° Southwest 435 501 23,400 -2,040 Descending New York Center
01:05PM 40.4422 -75.1097 226° Southwest 441 507 21,400 -2,040 Descending New York Center
01:06PM 40.3533 -75.2050 219° Southwest 428 493 19,400 -1,740 Descending New York Center
01:07PM 40.2731 -75.2894 219° Southwest 420 483 18,000 -720 Descending New York Center
01:08PM 40.1772 -75.3947 220° Southwest 410 472 18,000  Level New York Center
01:09PM 40.0900 -75.4867 219° Southwest 410 472 18,000  Level New York Center
01:10PM 40.0031 -75.5783 219° Southwest 410 472 18,000  Level New York Center
01:11PM 39.9264 -75.6650 221° Southwest 410 472 18,000  Level New York Center
01:12PM 39.8544 -75.7925 234° Southwest 410 472 18,000 -960 Level New York Center
01:13PM 39.7975 -75.9019 236° Southwest 410 472 16,200 -1,920 Descending New York Center
01:16PM 39.6500 -76.2000 237° Southwest 359 413 11,400 -1,740 Descending Potomac TRACON
01:17PM 39.6000 -76.3000 237° Southwest 350 403 10,400 -900 Descending Potomac TRACON
01:18PM 39.5500 -76.4000 237° Southwest 312 359 9,700 -900 Descending Potomac TRACON
01:19PM 39.5167 -76.5000 247° West 309 356 8,700 -1,020 Descending Potomac TRACON
01:20PM 39.4667 -76.6000 237° Southwest 303 349 7,700 -1,320 Descending Potomac TRACON
01:21PM 39.4167 -76.6833 232° Southwest 303 349 6,100 -1,440 Descending Potomac TRACON
01:22PM 39.3667 -76.7500 226° Southwest 281 323 4,900 -1,260 Descending Potomac TRACON
01:23PM 39.3000 -76.8167 218° Southwest 270 311 3,600 -1,140 Descending Potomac TRACON
01:24PM 39.2333 -76.8000 169° South 229 264 2,700 -1,020 Descending Potomac TRACON
01:25PM 39.1833 -76.7667 153° Southeast 179 206 1,600 -1,140 Descending Potomac TRACON